Albion, WA

5:20 AM PDT on September 23, 2014 (GMT -0700)
APRSWXNET Pullman WA US | Change Station
CLOSE
Current Station
Personal Weather Station
Location: Pullman, WA
Elevation: 2583 ft
Nearby Weather Stations

Elev 2583 ft 46.75 °N, 117.18 °W | Updated 59 minutes ago

Rain
Rain
60 °F
Feels Like 60 °F
N
1
Wind Variable Wind from SE
Gusts 6.0 mph

Today
High -- | Low -- °F
--% Chance of Precip.
Yesterday
High -- | Low -- °F
Precip. -- in
6:37 AM 6:44 PM
Waning Crescent, 1% visible
Pressure 29.96 in
Visibility 10.0 miles
Clouds Mostly Cloudy 9500 ft
Dew Point 55 °F
Humidity 84%
Rainfall 0.05 in
Snow Depth 0 in , 0 in , 0 in
UV 0 out of 12
Pollen 6.70 out of 12
Air Quality Not available.
Flu Activity Not available.
METAR KPUW 231153Z AUTO 10008KT 10SM BKN095 16/13 A3000 RMK AO2 SLP146 60006 70006 T01560128 10189 20144 53001

More Conditions Fewer Conditions

Pressure 29.96 in
Visibility 10.0 miles
Clouds Mostly Cloudy 9500 ft
Dew Point 55 °F
Humidity 84%
Rainfall 0.05 in
Snow Depth 0 in , 0 in , 0 in
UV 0 out of 12
Pollen 6.70 out of 12
Air Quality Not available.
Flu Activity Not available.
METAR KPUW 231153Z AUTO 10008KT 10SM BKN095 16/13 A3000 RMK AO2 SLP146 60006 70006 T01560128 10189 20144 53001

More Conditions Fewer Conditions

10-Day Weather Forecast

Almanac

Astronomy

Sep. 23, 2014 Rise Set
Actual Time 6:37 AM PDT 6:44 PM PDT
Civil Twilight 6:07 AM PDT 7:14 PM PDT
Nautical Twilight 5:31 AM PDT 7:50 PM PDT
Astronomical Twilight 4:54 AM PDT 8:26 PM PDT
Moon 6:05 AM PDT 6:24 PM PDT
Length of Visible Light 13h 07m
Length of Day
12h 07m
Tomorrow will be 3m 19s shorter.
Waning Crescent, 1% of the Moon is Illuminated
Today
Waning Crescent
Sep 24
New
Oct 1
First Quarter
Oct 8
Full
Oct 15
Last Quarter

Today's Extremes

State Highs State Lows

Community

WunderPhotos

Upload Photos

1,755,659 photos uploaded!

WunderBlogs® & News

Nearby

Snow Depth

Station Depth Elevation
Burnt Mountain 0 in 4200 ft
Swift Creek 0 in 3770 ft
Lost Horse 0 in 5000 ft
Huckleberry Creek 0 in 2000 ft
Bunchgrass Meadow 0 in 5000 ft

Earthquake Activity

City Distance Mag. Time & Date
No recent earthquake activity has been reported nearby.
Minimum magnitude displayed is 2.5.

Coastal Water Temperatures

Place Temperature
No Stations Reporting

Nearby Weather Stations